Time;durP1;ratioP1;P1;durP2;ratioP2;P2;SDS_P1;SDS_P2;PMS_P1;PMS_P2;Temp;Humidity;BMP_temperature;BMP_pressure;BME280_temperature;BME280_humidity;BME280_pressure;Samples;Min_cycle;Max_cycle;Signal;HPM_P1;HPM_P2
2022/05/13 00:01:34;;;;;;;2.23;2.03;;;10.90;99.90;;;;;;5002161;28;20456;-53
2022/05/13 00:04:01;;;;;;;2.33;2.23;;;10.80;99.90;;;;;;5005896;28;20491;-52
2022/05/13 00:06:27;;;;;;;2.50;2.30;;;10.80;99.90;;;;;;4984801;28;20523;-52
2022/05/13 00:08:55;;;;;;;2.43;2.23;;;10.80;99.90;;;;;;4975550;28;20516;-52
2022/05/13 00:11:22;;;;;;;6.30;5.03;;;10.60;99.90;;;;;;4993533;28;20859;-53
2022/05/13 00:13:49;;;;;;;2.87;2.27;;;10.60;99.90;;;;;;5000161;28;20538;-53
2022/05/13 00:16:16;;;;;;;3.47;2.70;;;10.50;99.90;;;;;;4996667;28;20456;-52
2022/05/13 00:18:43;;;;;;;5.77;2.60;;;10.60;99.90;;;;;;5000833;28;20478;-52
2022/05/13 00:21:10;;;;;;;4.80;2.37;;;10.50;99.90;;;;;;4980745;28;20573;-51
2022/05/13 00:23:37;;;;;;;2.00;1.90;;;10.50;99.90;;;;;;4975748;28;20460;-52
2022/05/13 00:26:05;;;;;;;2.70;2.17;;;10.50;99.90;;;;;;4983131;28;21352;-52
2022/05/13 00:28:31;;;;;;;3.00;2.50;;;10.50;99.90;;;;;;4980245;28;20490;-52
2022/05/13 00:30:59;;;;;;;4.97;2.27;;;10.30;99.90;;;;;;4985627;28;20459;-52
2022/05/13 00:33:26;;;;;;;3.20;2.47;;;10.40;99.90;;;;;;4998825;28;20460;-52
2022/05/13 00:35:53;;;;;;;4.70;2.20;;;10.20;99.90;;;;;;4996106;28;20459;-52
2022/05/13 00:38:19;;;;;;;2.53;2.33;;;10.20;99.90;;;;;;4983304;28;20492;-52
2022/05/13 00:40:47;;;;;;;2.70;2.50;;;10.20;99.90;;;;;;4994105;28;20518;-52
2022/05/13 00:43:36;;;;;;;2.43;2.27;;;10.10;99.90;;;;;;4996378;28;20500;-51
2022/05/13 00:46:04;;;;;;;7.83;2.80;;;10.00;99.90;;;;;;5001931;28;20470;-52
2022/05/13 00:48:31;;;;;;;2.20;2.00;;;9.90;86.20;;;;;;5004551;28;20483;-52
2022/05/13 00:50:58;;;;;;;10.83;2.90;;;10.00;99.90;;;;;;5004142;28;20521;-53
2022/05/13 00:53:26;;;;;;;2.80;2.70;;;10.00;99.90;;;;;;4998831;28;20464;-52
2022/05/13 00:55:54;;;;;;;2.70;2.37;;;10.10;99.90;;;;;;5004264;28;20487;-54
2022/05/13 00:58:22;;;;;;;2.40;2.10;;;10.00;99.90;;;;;;5001046;28;20945;-53
2022/05/13 01:00:49;;;;;;;2.53;2.33;;;9.90;99.90;;;;;;5000333;28;20488;-53
2022/05/13 01:03:17;;;;;;;1.90;1.80;;;9.90;99.90;;;;;;5004589;28;20486;-52
2022/05/13 01:05:47;;;;;;;5.03;2.63;;;9.90;99.90;;;;;;5006587;28;21056;-53
2022/05/13 01:08:14;;;;;;;3.07;2.27;;;10.00;95.60;;;;;;5006780;28;20848;-53
2022/05/13 01:10:43;;;;;;;6.97;2.60;;;9.90;99.90;;;;;;5006327;28;20467;-52
2022/05/13 01:13:15;;;;;;;2.90;2.70;;;9.70;99.90;;;;;;5006016;28;20490;-52
2022/05/13 01:15:44;;;;;;;2.60;2.40;;;9.60;95.60;;;;;;5005929;28;20487;-52
2022/05/13 01:18:10;;;;;;;9.83;2.60;;;9.60;98.70;;;;;;5004114;28;20463;-52
2022/05/13 01:20:42;;;;;;;22.80;3.43;;;9.50;92.70;;;;;;5006505;28;20475;-53
2022/05/13 01:23:15;;;;;;;3.10;2.77;;;9.50;80.90;;;;;;4995245;28;20521;-52
2022/05/13 01:25:46;;;;;;;2.90;2.53;;;9.50;82.20;;;;;;5002059;28;20475;-53
2022/05/13 01:28:16;;;;;;;2.57;2.33;;;9.50;87.50;;;;;;5004764;28;20562;-53
2022/05/13 01:30:45;;;;;;;4.47;3.30;;;9.50;82.00;;;;;;5001991;28;20460;-53
2022/05/13 01:33:12;;;;;;;4.20;2.33;;;9.40;83.10;;;;;;5006165;28;21015;-52
2022/05/13 01:35:41;;;;;;;4.70;2.67;;;9.40;72.40;;;;;;5005237;28;20574;-53
2022/05/13 01:38:08;;;;;;;3.17;2.87;;;9.40;71.00;;;;;;5003620;28;20496;-52
2022/05/13 01:40:36;;;;;;;2.40;2.20;;;9.40;55.60;;;;;;4999335;28;20460;-53
2022/05/13 01:43:03;;;;;;;5.83;2.53;;;9.30;73.40;;;;;;5001535;28;20488;-52
2022/05/13 01:45:29;;;;;;;5.13;2.33;;;9.20;73.60;;;;;;5002504;28;20538;-52
2022/05/13 01:47:56;;;;;;;4.33;2.33;;;9.20;66.00;;;;;;5005188;28;21990;-54
2022/05/13 01:50:23;;;;;;;4.37;2.30;;;9.20;55.30;;;;;;5009239;28;20514;-52
2022/05/13 01:52:49;;;;;;;3.80;2.67;;;9.30;65.60;;;;;;5006235;28;20969;-52
2022/05/13 01:55:16;;;;;;;2.60;2.40;;;9.20;78.50;;;;;;5000938;28;21897;-54
2022/05/13 01:57:44;;;;;;;4.03;2.53;;;9.20;68.60;;;;;;5002282;28;20509;-53
2022/05/13 02:00:12;;;;;;;2.37;2.27;;;9.30;59.40;;;;;;5008277;28;20459;-52
2022/05/13 02:05:19;;;;;;;3.27;3.00;;;9.10;67.00;;;;;;5007043;28;20562;-54
2022/05/13 02:07:46;;;;;;;4.60;2.33;;;9.10;61.30;;;;;;5007897;28;20553;-53
2022/05/13 02:10:12;;;;;;;7.33;3.80;;;9.10;60.30;;;;;;5009236;28;20833;-52
2022/05/13 02:12:39;;;;;;;2.77;2.50;;;9.10;74.10;;;;;;5004600;28;20463;-52
2022/05/13 02:15:09;;;;;;;2.60;2.40;;;9.00;70.00;;;;;;5002051;28;20863;-52
2022/05/13 02:17:36;;;;;;;4.13;2.93;;;9.00;62.50;;;;;;5003374;28;20496;-52
2022/05/13 02:20:03;;;;;;;3.30;2.43;;;8.90;67.10;;;;;;5006389;28;20455;-52
2022/05/13 02:22:30;;;;;;;3.90;2.63;;;8.90;52.60;;;;;;5003727;28;20463;-52
2022/05/13 02:24:57;;;;;;;2.63;2.53;;;8.80;55.80;;;;;;5006353;28;20542;-52
2022/05/13 02:27:23;;;;;;;5.23;2.67;;;8.80;51.20;;;;;;5006197;28;20518;-52
2022/05/13 02:29:50;;;;;;;3.97;2.80;;;8.80;42.20;;;;;;5005316;28;20546;-54
2022/05/13 02:32:18;;;;;;;4.80;2.33;;;8.80;53.80;;;;;;5000996;28;20557;-53
2022/05/13 02:34:44;;;;;;;5.27;3.27;;;8.80;46.20;;;;;;5001540;28;20484;-52
2022/05/13 02:37:11;;;;;;;2.97;2.67;;;8.80;36.00;;;;;;5002037;28;20874;-52
2022/05/13 02:39:37;;;;;;;2.87;2.53;;;8.90;41.90;;;;;;4997199;28;21032;-52
2022/05/13 02:42:05;;;;;;;5.63;2.80;;;8.90;51.10;;;;;;4998146;28;20461;-51
2022/05/13 02:44:32;;;;;;;2.77;2.57;;;8.80;33.10;;;;;;5004334;28;20511;-52
2022/05/13 02:46:58;;;;;;;4.23;2.97;;;8.80;51.80;;;;;;5002902;28;20468;-52
2022/05/13 02:49:26;;;;;;;3.63;3.27;;;8.80;52.10;;;;;;5001205;28;20488;-53
2022/05/13 02:51:54;;;;;;;7.40;5.23;;;8.80;48.40;;;;;;4998210;28;20507;-53
2022/05/13 02:54:21;;;;;;;3.00;2.80;;;8.80;43.50;;;;;;5003846;28;20480;-52
2022/05/13 02:56:47;;;;;;;2.90;2.70;;;8.70;58.90;;;;;;4998259;28;20463;-53
2022/05/13 02:59:14;;;;;;;4.33;3.00;;;8.80;48.90;;;;;;5003134;28;20456;-53
2022/05/13 03:01:40;;;;;;;4.87;2.60;;;8.80;67.90;;;;;;5001425;28;20981;-52
2022/05/13 03:04:07;;;;;;;5.53;2.50;;;8.70;70.40;;;;;;5003736;28;20483;-52
2022/05/13 03:06:35;;;;;;;4.17;2.87;;;8.60;49.80;;;;;;5000609;28;20510;-52
2022/05/13 03:09:02;;;;;;;3.00;2.70;;;8.50;56.90;;;;;;5004355;28;20475;-52
2022/05/13 03:11:29;;;;;;;3.27;3.07;;;8.50;57.50;;;;;;5000843;28;20457;-53
2022/05/13 03:13:56;;;;;;;2.70;2.33;;;8.40;58.30;;;;;;5000536;28;20519;-53
2022/05/13 03:16:25;;;;;;;3.67;3.37;;;8.40;58.90;;;;;;5000327;28;20487;-53
2022/05/13 03:18:53;;;;;;;3.33;3.10;;;8.30;57.90;;;;;;4997451;28;20510;-52
2022/05/13 03:21:21;;;;;;;3.40;2.97;;;8.30;57.70;;;;;;5001850;28;20486;-53
2022/05/13 03:23:49;;;;;;;5.83;3.00;;;8.20;51.80;;;;;;5001680;28;20606;-54
2022/05/13 03:26:18;;;;;;;3.30;2.70;;;8.20;42.00;;;;;;5010146;28;20456;-54
2022/05/13 03:28:45;;;;;;;4.50;3.90;;;8.10;27.00;;;;;;5002445;28;20480;-53
2022/05/13 03:31:12;;;;;;;5.23;3.47;;;8.10;31.70;;;;;;5001741;28;20511;-54
2022/05/13 03:33:39;;;;;;;4.23;3.07;;;8.10;38.20;;;;;;4998695;28;20514;-52
2022/05/13 03:36:07;;;;;;;5.90;3.47;;;8.00;37.00;;;;;;5005306;28;20475;-53
2022/05/13 03:38:33;;;;;;;3.57;2.80;;;8.10;33.00;;;;;;4999326;28;20487;-53
2022/05/13 03:41:01;;;;;;;11.33;3.40;;;8.10;40.20;;;;;;5001318;28;20495;-52
2022/05/13 03:43:28;;;;;;;3.30;2.70;;;8.00;33.20;;;;;;4997817;28;20533;-52
2022/05/13 03:45:54;;;;;;;3.20;2.90;;;8.00;34.40;;;;;;5004092;28;20866;-53
2022/05/13 03:48:21;;;;;;;4.00;3.10;;;8.00;29.40;;;;;;5004869;28;20483;-52
2022/05/13 03:50:48;;;;;;;7.77;3.53;;;8.00;34.30;;;;;;4994375;28;20465;-52
2022/05/13 03:53:15;;;;;;;13.67;3.60;;;8.10;26.50;;;;;;4999473;28;20538;-52
2022/05/13 03:55:42;;;;;;;6.23;3.00;;;8.10;24.30;;;;;;5003072;28;20523;-53
2022/05/13 03:58:10;;;;;;;3.30;3.10;;;8.10;34.70;;;;;;5002484;28;20991;-53
2022/05/13 04:00:36;;;;;;;3.17;2.87;;;8.10;33.80;;;;;;5001708;28;20546;-52
2022/05/13 04:03:03;;;;;;;4.10;3.13;;;8.10;33.90;;;;;;4994497;28;20492;-53
2022/05/13 04:10:58;;;;;;;3.33;3.13;;;8.40;34.80;;;;;;5006406;28;21153;-53
2022/05/13 04:16:19;;;;;;;4.80;3.17;;;8.50;36.20;;;;;;4977708;28;20797;-53
2022/05/13 04:18:47;;;;;;;3.67;3.33;;;8.60;43.80;;;;;;4997150;28;20510;-52
2022/05/13 04:21:17;;;;;;;6.80;3.80;;;8.60;42.60;;;;;;4999605;28;20540;-52
2022/05/13 04:23:46;;;;;;;3.97;3.17;;;8.80;32.80;;;;;;5007049;28;20525;-53
2022/05/13 04:26:14;;;;;;;5.57;3.97;;;8.80;37.10;;;;;;5004222;28;20841;-54
2022/05/13 04:28:44;;;;;;;5.20;3.83;;;8.90;44.70;;;;;;4994981;28;20937;-54
2022/05/13 04:31:11;;;;;;;5.23;4.83;;;9.00;39.10;;;;;;4993092;28;20464;-52
2022/05/13 04:33:39;;;;;;;4.73;4.30;;;9.10;46.50;;;;;;4996309;28;20656;-53
2022/05/13 04:36:07;;;;;;;4.30;3.97;;;9.20;35.50;;;;;;5002948;28;20487;-52
2022/05/13 04:38:34;;;;;;;6.23;4.90;;;9.30;38.40;;;;;;4993538;28;20460;-51
2022/05/13 04:42:49;;;;;;;9.20;4.70;;;9.50;40.30;;;;;;4996230;28;20545;-53
2022/05/13 04:43:48;;;;;;;7.27;3.90;;;9.60;45.90;;;;;;4997074;28;20444;-53
2022/05/13 04:46:15;;;;;;;9.07;4.70;;;9.70;47.90;;;;;;5001180;28;20933;-53
2022/05/13 04:48:41;;;;;;;12.40;4.40;;;9.80;52.60;;;;;;4995459;28;20965;-54
2022/05/13 04:51:10;;;;;;;5.27;4.77;;;9.90;50.40;;;;;;5003052;28;20475;-53
2022/05/13 04:53:38;;;;;;;7.37;4.77;;;10.00;49.70;;;;;;4998501;28;21015;-53
2022/05/13 04:56:07;;;;;;;8.20;4.70;;;10.20;53.70;;;;;;4999219;28;20495;-53
2022/05/13 04:58:34;;;;;;;4.47;4.17;;;10.20;57.70;;;;;;4994403;28;20495;-53
2022/05/13 05:01:04;;;;;;;6.17;5.70;;;10.40;60.40;;;;;;4995263;28;20510;-52
2022/05/13 05:03:32;;;;;;;5.73;4.00;;;10.50;63.70;;;;;;4995159;28;20879;-52
2022/05/13 05:05:59;;;;;;;9.43;4.90;;;10.60;72.30;;;;;;4999753;28;20478;-52
2022/05/13 05:08:27;;;;;;;5.90;4.60;;;10.70;78.70;;;;;;5000044;28;20550;-52
2022/05/13 05:10:55;;;;;;;5.27;4.97;;;10.90;88.10;;;;;;5001195;28;20488;-53
2022/05/13 05:13:24;;;;;;;8.80;5.07;;;11.10;93.80;;;;;;5008172;28;20515;-53
2022/05/13 05:15:51;;;;;;;4.50;4.20;;;11.20;99.90;;;;;;4998318;28;20539;-53
2022/05/13 05:18:19;;;;;;;9.97;5.23;;;11.30;99.90;;;;;;5007576;28;20495;-53
2022/05/13 05:20:47;;;;;;;9.70;5.30;;;11.50;99.90;;;;;;4996950;28;20456;-53
2022/05/13 05:23:14;;;;;;;7.83;4.33;;;11.60;99.90;;;;;;5002599;28;20469;-53
2022/05/13 05:25:43;;;;;;;6.50;5.37;;;11.60;99.90;;;;;;5001492;28;21229;-53
2022/05/13 05:28:10;;;;;;;5.80;4.60;;;11.70;99.90;;;;;;5004935;28;21049;-53
2022/05/13 05:30:37;;;;;;;12.70;4.83;;;11.80;99.90;;;;;;5007596;28;21040;-51
2022/05/13 05:33:04;;;;;;;4.53;4.13;;;12.00;99.90;;;;;;5004900;28;20460;-51
2022/05/13 05:35:33;;;;;;;10.40;4.27;;;12.10;99.90;;;;;;5005762;28;20507;-51
2022/05/13 05:38:00;;;;;;;5.30;4.50;;;12.20;99.90;;;;;;5002729;28;20456;-51
2022/05/13 05:40:27;;;;;;;5.40;4.90;;;12.30;99.90;;;;;;5004167;28;20538;-51
2022/05/13 05:42:54;;;;;;;6.33;3.90;;;12.40;99.90;;;;;;5008537;28;20456;-53
2022/05/13 05:45:24;;;;;;;8.47;5.37;;;12.50;99.90;;;;;;4997530;28;20995;-52
2022/05/13 05:47:51;;;;;;;9.90;6.30;;;12.50;99.90;;;;;;4999325;28;20542;-53
2022/05/13 05:50:20;;;;;;;18.73;5.90;;;12.60;99.90;;;;;;5001881;28;20581;-52
2022/05/13 05:52:48;;;;;;;8.23;5.27;;;12.70;99.90;;;;;;5010284;28;20526;-52
2022/05/13 05:58:01;;;;;;;38.00;6.03;;;12.70;99.90;;;;;;5003507;28;20464;-51
2022/05/13 06:00:30;;;;;;;17.30;6.43;;;12.70;99.90;;;;;;5002632;28;20472;-52
2022/05/13 06:02:57;;;;;;;13.90;5.53;;;12.70;99.90;;;;;;5000182;28;20514;-52
2022/05/13 06:05:24;;;;;;;9.90;4.97;;;12.70;99.90;;;;;;5010521;28;20476;-51
2022/05/13 06:07:54;;;;;;;7.20;5.23;;;12.80;99.90;;;;;;4997102;28;21011;-52
2022/05/13 06:10:21;;;;;;;5.47;4.80;;;12.80;99.90;;;;;;5000340;28;20534;-53
2022/05/13 06:12:47;;;;;;;7.53;5.40;;;12.90;99.90;;;;;;5006172;28;20463;-51
2022/05/13 06:15:14;;;;;;;7.33;5.60;;;12.90;99.90;;;;;;5002829;28;20903;-51
2022/05/13 06:17:46;;;;;;;12.03;4.70;;;13.00;99.90;;;;;;5001768;28;20972;-51
2022/05/13 06:20:14;;;;;;;14.10;5.13;;;13.00;99.90;;;;;;5002336;28;20532;-52
2022/05/13 06:22:40;;;;;;;11.67;5.23;;;13.00;99.90;;;;;;5003187;28;20459;-51
2022/05/13 06:25:10;;;;;;;5.77;5.27;;;13.00;99.90;;;;;;4999271;28;20534;-52
2022/05/13 06:27:38;;;;;;;8.10;5.17;;;13.10;99.90;;;;;;4998557;28;20553;-52
2022/05/13 06:30:06;;;;;;;7.93;4.87;;;13.10;99.90;;;;;;4999794;28;20903;-52
2022/05/13 06:32:33;;;;;;;12.77;5.00;;;13.10;99.90;;;;;;4998050;28;20545;-52
2022/05/13 06:34:59;;;;;;;5.10;4.23;;;13.10;99.90;;;;;;5003044;28;20487;-52
2022/05/13 06:37:26;;;;;;;5.13;4.63;;;13.10;99.90;;;;;;4997395;28;20784;-51
2022/05/13 06:39:52;;;;;;;12.33;4.40;;;13.10;99.90;;;;;;5003032;28;20542;-51
2022/05/13 06:42:20;;;;;;;13.63;5.17;;;13.20;99.90;;;;;;5000742;28;20526;-53
2022/05/13 06:44:47;;;;;;;5.27;4.43;;;13.30;99.90;;;;;;5001985;28;20515;-53
2022/05/13 06:47:15;;;;;;;5.00;4.60;;;13.30;99.90;;;;;;5000060;28;20463;-52
2022/05/13 06:49:41;;;;;;;6.73;4.87;;;13.40;99.90;;;;;;4999887;28;21060;-52
2022/05/13 06:52:08;;;;;;;7.40;4.53;;;13.30;99.90;;;;;;5000532;28;20496;-52
2022/05/13 06:54:35;;;;;;;5.03;4.50;;;13.40;99.90;;;;;;5001682;28;20525;-52
2022/05/13 06:57:02;;;;;;;4.80;4.37;;;13.50;99.90;;;;;;4996829;28;20491;-53
2022/05/13 06:59:30;;;;;;;8.80;5.07;;;13.50;99.90;;;;;;4995396;28;21129;-51
2022/05/13 07:01:56;;;;;;;6.97;5.00;;;13.50;99.90;;;;;;4997424;28;20491;-53
2022/05/13 07:04:23;;;;;;;5.53;4.30;;;13.60;99.90;;;;;;4996638;28;20966;-52
2022/05/13 07:06:49;;;;;;;13.20;4.27;;;13.60;99.90;;;;;;4996489;28;20497;-51
2022/05/13 07:09:16;;;;;;;4.87;3.97;;;13.60;99.90;;;;;;4993163;28;20581;-52
2022/05/13 07:11:44;;;;;;;7.40;4.80;;;13.70;99.90;;;;;;4995696;28;20488;-52
2022/05/13 07:14:11;;;;;;;7.30;5.00;;;13.70;99.90;;;;;;4998727;28;21027;-52
2022/05/13 07:16:39;;;;;;;5.63;5.13;;;13.80;99.90;;;;;;4998728;28;20440;-52
2022/05/13 07:19:06;;;;;;;5.00;4.43;;;13.80;99.90;;;;;;4993972;28;20491;-52
2022/05/13 07:21:33;;;;;;;7.07;4.23;;;13.70;99.90;;;;;;4998561;28;20460;-51
2022/05/13 07:23:59;;;;;;;4.57;4.17;;;13.80;99.90;;;;;;5005317;28;21062;-53
2022/05/13 07:26:26;;;;;;;10.93;5.07;;;13.80;99.90;;;;;;5002891;28;20866;-51
2022/05/13 07:28:53;;;;;;;8.00;4.40;;;13.70;99.90;;;;;;5002739;28;20461;-53
2022/05/13 07:31:19;;;;;;;8.10;4.70;;;13.80;99.90;;;;;;4998147;28;21172;-53
2022/05/13 07:33:48;;;;;;;4.43;4.03;;;13.80;99.90;;;;;;4999009;28;20820;-52
2022/05/13 07:36:14;;;;;;;15.60;5.13;;;13.90;99.90;;;;;;5005259;28;21189;-52
2022/05/13 07:41:16;;;;;;;5.07;4.67;;;13.90;99.90;;;;;;5005253;28;20459;-52
2022/05/13 07:41:27;;;;;;;6.23;4.90;;;14.00;99.90;;;;;;4996596;28;20988;-51
2022/05/13 07:43:53;;;;;;;11.43;5.57;;;14.00;99.90;;;;;;5005171;28;20487;-52
2022/05/13 07:46:20;;;;;;;5.93;5.33;;;14.00;99.90;;;;;;5001167;28;20267;-53
2022/05/13 07:48:48;;;;;;;13.03;10.73;;;14.10;99.90;;;;;;5002865;28;20491;-52
2022/05/13 07:51:14;;;;;;;8.37;7.53;;;14.10;99.90;;;;;;5006510;28;20487;-52
2022/05/13 07:53:41;;;;;;;9.10;5.30;;;14.10;99.90;;;;;;5005281;28;20550;-53
2022/05/13 07:56:08;;;;;;;16.70;5.53;;;14.10;99.90;;;;;;5006346;28;20463;-52
2022/05/13 07:58:35;;;;;;;11.00;5.90;;;14.10;99.90;;;;;;4998184;28;20613;-52
2022/05/13 08:01:02;;;;;;;8.90;5.83;;;14.20;20.30;;;;;;5001996;28;20465;-53
2022/05/13 08:03:30;;;;;;;9.20;5.83;;;14.30;24.10;;;;;;5005275;28;20985;-52
2022/05/13 08:06:03;;;;;;;12.77;6.13;;;14.40;32.20;;;;;;4999652;28;20460;-52
2022/05/13 08:08:35;;;;;;;8.13;6.60;;;14.50;41.30;;;;;;5004397;28;20487;-52
2022/05/13 08:11:04;;;;;;;9.70;5.40;;;14.60;34.90;;;;;;5002674;28;20467;-52
2022/05/13 08:13:31;;;;;;;10.50;6.30;;;14.60;50.40;;;;;;5008186;28;20464;-52
2022/05/13 08:15:58;;;;;;;8.63;6.17;;;14.60;59.70;;;;;;5007559;28;20498;-51
2022/05/13 08:18:25;;;;;;;6.20;5.20;;;14.70;63.90;;;;;;5005268;28;20549;-52
2022/05/13 08:20:52;;;;;;;12.13;6.50;;;14.70;61.70;;;;;;5009509;28;20459;-52
2022/05/13 08:23:20;;;;;;;7.30;5.10;;;14.70;61.00;;;;;;5012019;28;20521;-52
2022/05/13 08:25:48;;;;;;;5.93;4.67;;;14.80;55.60;;;;;;5011167;28;20858;-52
2022/05/13 08:28:16;;;;;;;6.63;4.57;;;14.80;49.30;;;;;;5010232;28;20521;-52
2022/05/13 08:30:45;;;;;;;12.60;5.50;;;14.80;40.90;;;;;;5009792;28;20512;-51
2022/05/13 08:33:12;;;;;;;7.90;5.50;;;14.80;50.00;;;;;;5008728;28;20585;-52
2022/05/13 08:35:41;;;;;;;5.97;5.40;;;14.80;53.60;;;;;;5013656;28;20490;-51
2022/05/13 08:38:09;;;;;;;10.50;6.23;;;14.90;62.80;;;;;;5013606;28;20478;-52
2022/05/13 08:40:56;;;;;;;5.40;5.00;;;14.90;59.80;;;;;;5006084;28;20455;-52
2022/05/13 08:43:26;;;;;;;7.47;5.70;;;14.90;57.70;;;;;;5006822;28;20845;-52
2022/05/13 08:46:00;;;;;;;12.70;5.80;;;15.00;49.30;;;;;;5006123;28;20506;-53
2022/05/13 08:48:31;;;;;;;9.10;6.07;;;15.10;59.10;;;;;;5006026;28;20455;-52
2022/05/13 08:51:03;;;;;;;5.90;5.37;;;15.10;57.80;;;;;;5005279;28;20583;-52
2022/05/13 08:53:33;;;;;;;6.30;5.77;;;15.10;62.10;;;;;;5009818;28;20463;-53
2022/05/13 08:56:06;;;;;;;8.73;5.40;;;15.20;65.50;;;;;;5013599;28;20486;-52
2022/05/13 08:58:37;;;;;;;6.60;5.87;;;15.20;68.70;;;;;;5005576;28;20463;-52
2022/05/13 09:01:08;;;;;;;16.37;7.03;;;15.30;70.10;;;;;;5006006;28;20460;-53
2022/05/13 09:03:40;;;;;;;8.23;6.03;;;15.40;73.40;;;;;;5007277;28;20533;-51
2022/05/13 09:06:12;;;;;;;9.47;6.10;;;15.40;75.90;;;;;;5008560;28;20451;-52
2022/05/13 09:08:39;;;;;;;9.90;6.13;;;15.50;76.10;;;;;;5004149;28;20483;-51
2022/05/13 09:11:26;;;;;;;9.13;6.77;;;15.60;81.70;;;;;;5002775;28;20849;-52
2022/05/13 09:14:01;;;;;;;20.83;7.03;;;15.60;83.50;;;;;;5009357;28;20888;-53
2022/05/13 09:16:43;;;;;;;7.10;5.27;;;15.70;76.50;;;;;;5027361;22;20544;-53
2022/05/13 09:19:14;;;;;;;7.60;5.90;;;15.90;93.40;;;;;;5029199;28;20466;-53
2022/05/13 09:21:43;;;;;;;11.30;6.13;;;16.10;99.90;;;;;;5026234;28;20524;-53
2022/05/13 09:24:10;;;;;;;7.80;5.20;;;16.40;99.90;;;;;;5025444;28;20463;-54
2022/05/13 09:26:38;;;;;;;9.57;5.00;;;16.60;99.90;;;;;;5020675;28;21024;-53
2022/05/13 09:29:09;;;;;;;20.10;5.60;;;16.80;99.90;;;;;;5016690;28;21090;-53
2022/05/13 09:31:38;;;;;;;9.60;5.00;;;17.00;99.90;;;;;;5022836;28;20566;-53
2022/05/13 09:34:14;;;;;;;8.37;4.50;;;17.10;99.90;;;;;;5030066;28;20455;-53
2022/05/13 09:36:41;;;;;;;6.23;3.60;;;17.40;99.90;;;;;;5019840;28;20511;-53
2022/05/13 09:39:22;;;;;;;8.37;3.87;;;17.70;99.90;;;;;;5021755;28;20489;-54
2022/05/13 09:41:52;;;;;;;6.93;4.00;;;18.00;99.90;;;;;;5023420;28;20458;-54
2022/05/13 09:44:21;;;;;;;4.47;3.10;;;18.10;99.90;;;;;;5026336;28;20902;-53
2022/05/13 09:46:51;;;;;;;6.60;3.50;;;18.00;99.90;;;;;;5027623;28;20488;-54
2022/05/13 09:49:28;;;;;;;7.80;3.50;;;18.20;99.90;;;;;;5026693;28;20466;-52
2022/05/13 09:51:57;;;;;;;6.97;3.57;;;18.20;99.90;;;;;;5017993;28;20505;-53
2022/05/13 09:54:27;;;;;;;7.27;3.27;;;18.20;99.90;;;;;;5018985;28;20831;-54
2022/05/13 09:57:07;;;;;;;3.80;2.50;;;18.00;99.90;;;;;;5022700;28;20479;-54
2022/05/13 09:59:39;;;;;;;4.90;3.10;;;18.00;99.90;;;;;;5021354;28;20463;-53
2022/05/13 10:02:24;;;;;;;66.73;8.03;;;17.80;99.90;;;;;;5026379;28;20904;-54
2022/05/13 10:04:53;;;;;;;6.70;3.50;;;17.90;99.90;;;;;;5029442;28;20897;-54
2022/05/13 10:07:22;;;;;;;8.43;3.60;;;18.10;99.90;;;;;;5027328;28;20891;-53
2022/05/13 10:15:28;;;;;;;3.67;2.60;;;18.50;99.90;;;;;;5020605;28;20931;-53
2022/05/13 10:18:03;;;;;;;9.00;3.67;;;18.60;99.90;;;;;;5021907;28;20466;-54
2022/05/13 10:20:37;;;;;;;5.10;3.23;;;18.90;99.90;;;;;;5023191;28;20985;-53
2022/05/13 10:23:11;;;;;;;7.30;3.03;;;18.90;99.90;;;;;;5014041;28;20451;-54
2022/05/13 10:25:50;;;;;;;13.40;4.23;;;19.00;99.90;;;;;;5015606;28;20487;-53
2022/05/13 10:28:20;;;;;;;8.20;3.10;;;18.80;99.90;;;;;;5017132;28;21085;-53
2022/05/13 10:30:51;;;;;;;8.13;3.03;;;18.50;99.90;;;;;;5020373;28;20568;-55
2022/05/13 10:33:26;;;;;;;6.50;3.07;;;18.40;99.90;;;;;;5016672;28;20529;-54
2022/05/13 10:35:58;;;;;;;3.90;3.47;;;18.40;99.90;;;;;;5020437;28;20486;-53
2022/05/13 10:38:31;;;;;;;6.10;3.00;;;18.50;99.90;;;;;;5029878;28;20520;-54
2022/05/13 10:41:10;;;;;;;7.53;3.53;;;18.50;99.90;;;;;;5028116;28;20487;-53
2022/05/13 10:43:44;;;;;;;20.57;2.07;;;18.50;99.90;;;;;;5024706;28;20530;-53
2022/05/13 10:46:21;;;;;;;6.00;1.73;;;18.50;99.90;;;;;;5017870;28;20519;-54
2022/05/13 10:48:51;;;;;;;8.03;2.43;;;18.70;99.90;;;;;;5024198;28;20470;-54
2022/05/13 10:51:21;;;;;;;5.43;2.07;;;18.90;99.90;;;;;;5022439;28;20528;-53
2022/05/13 10:54:04;;;;;;;4.17;2.90;;;19.30;99.90;;;;;;5018264;28;20482;-54
2022/05/13 10:56:39;;;;;;;6.43;2.80;;;19.30;99.90;;;;;;5015594;28;20511;-53
2022/05/13 10:59:18;;;;;;;6.37;2.40;;;19.00;99.90;;;;;;5016564;28;20451;-53
2022/05/13 11:01:53;;;;;;;2.77;2.10;;;18.70;99.90;;;;;;5022179;28;20451;-53
2022/05/13 11:04:27;;;;;;;15.13;2.83;;;18.40;99.90;;;;;;5028366;28;20462;-53
2022/05/13 11:07:10;;;;;;;5.60;2.27;;;18.00;99.90;;;;;;5015986;28;20483;-53
2022/05/13 11:09:46;;;;;;;12.67;2.90;;;17.90;99.90;;;;;;5015737;28;20463;-53
2022/05/13 11:12:26;;;;;;;9.00;2.60;;;17.90;99.90;;;;;;5019980;28;20510;-54
2022/05/13 11:15:07;;;;;;;6.73;2.30;;;17.80;99.90;;;;;;5017100;28;20514;-54
2022/05/13 11:17:41;;;;;;;11.73;2.47;;;18.20;99.90;;;;;;5015367;28;20475;-53
2022/05/13 11:20:18;;;;;;;3.43;2.10;;;18.60;99.90;;;;;;5017963;28;20470;-55
2022/05/13 11:22:51;;;;;;;2.20;1.87;;;18.50;99.90;;;;;;5024119;28;20516;-53
2022/05/13 11:28:36;;;;;;;12.63;2.60;;;18.40;99.90;;;;;;5025896;28;21160;-54
2022/05/13 11:31:13;;;;;;;10.23;2.10;;;18.30;99.90;;;;;;5023868;28;20515;-54
2022/05/13 11:33:45;;;;;;;4.70;2.50;;;18.40;99.90;;;;;;5028366;28;20466;-54
2022/05/13 11:36:29;;;;;;;7.63;3.20;;;18.20;99.90;;;;;;5028679;28;20489;-53
2022/05/13 11:39:10;;;;;;;11.37;2.40;;;18.20;99.90;;;;;;5028871;28;20470;-53
2022/05/13 11:41:46;;;;;;;5.40;2.10;;;17.90;99.90;;;;;;5018807;28;20462;-54
2022/05/13 11:44:18;;;;;;;13.17;2.50;;;17.80;99.90;;;;;;5018752;28;20487;-54
2022/05/13 11:46:58;;;;;;;6.63;2.70;;;17.70;99.90;;;;;;5027676;28;20490;-53
2022/05/13 11:49:28;;;;;;;3.73;2.07;;;17.70;99.90;;;;;;5019722;28;20454;-54
2022/05/13 11:51:56;;;;;;;10.07;2.27;;;17.80;99.90;;;;;;5016689;28;20486;-52
2022/05/13 11:54:26;;;;;;;12.30;2.43;;;18.10;99.90;;;;;;5025211;28;20512;-53
2022/05/13 11:57:25;;;;;;;14.00;2.70;;;18.40;99.90;;;;;;5014110;28;20497;-53
2022/05/13 11:59:54;;;;;;;15.63;1.93;;;18.90;99.90;;;;;;5025394;28;20964;-54
2022/05/13 12:02:50;;;;;;;6.47;2.10;;;19.00;99.90;;;;;;5020617;28;20499;-54
2022/05/13 12:05:40;;;;;;;5.50;1.90;;;19.00;99.90;;;;;;5024890;28;20434;-54
2022/05/13 12:08:21;;;;;;;11.47;2.30;;;18.80;99.90;;;;;;5023756;28;20895;-53
2022/05/13 12:10:55;;;;;;;15.23;2.50;;;18.60;99.90;;;;;;5018756;28;20485;-54
2022/05/13 12:13:34;;;;;;;6.40;3.00;;;18.30;99.90;;;;;;5014460;28;20548;-55
2022/05/13 12:16:18;;;;;;;10.10;2.10;;;18.00;99.90;;;;;;5024041;28;20552;-54
2022/05/13 12:18:53;;;;;;;7.43;2.40;;;17.80;99.90;;;;;;5021496;28;20486;-53
2022/05/13 12:21:31;;;;;;;4.60;2.27;;;17.70;99.90;;;;;;5018841;28;20485;-55
2022/05/13 12:24:03;;;;;;;9.03;2.43;;;17.50;99.90;;;;;;5022804;28;20487;-54
2022/05/13 12:27:06;;;;;;;8.50;2.60;;;17.40;99.90;;;;;;5025704;28;20486;-54
2022/05/13 12:29:46;;;;;;;6.73;2.87;;;17.40;99.90;;;;;;5017915;28;20587;-53
2022/05/13 12:32:21;;;;;;;5.87;2.33;;;17.30;99.90;;;;;;5016270;28;21081;-54
2022/05/13 12:38:02;;;;;;;10.00;2.53;;;17.10;99.90;;;;;;5018195;28;20500;-54
2022/05/13 12:40:34;;;;;;;10.83;2.73;;;17.10;99.90;;;;;;5020322;28;20957;-54
2022/05/13 12:43:06;;;;;;;13.00;2.90;;;17.00;99.90;;;;;;5023707;28;20455;-54
2022/05/13 12:45:57;;;;;;;14.13;3.70;;;16.90;99.90;;;;;;5020700;28;20482;-54
2022/05/13 12:48:24;;;;;;;9.60;3.00;;;16.90;99.90;;;;;;5017891;28;20501;-54
2022/05/13 12:50:54;;;;;;;7.00;1.80;;;16.70;99.90;;;;;;5017293;28;20489;-54
2022/05/13 12:53:42;;;;;;;7.60;2.00;;;16.80;99.90;;;;;;5024322;28;20477;-54
2022/05/13 12:56:28;;;;;;;7.93;2.27;;;16.70;99.90;;;;;;5026641;28;20548;-53
2022/05/13 12:59:00;;;;;;;2.33;2.03;;;16.70;99.90;;;;;;5031823;28;20462;-54
2022/05/13 13:01:28;;;;;;;6.13;2.20;;;16.70;99.90;;;;;;5025326;28;20446;-53
2022/05/13 13:03:55;;;;;;;7.57;2.33;;;16.70;99.90;;;;;;5027236;28;20530;-53
2022/05/13 13:06:25;;;;;;;7.00;2.13;;;16.70;99.90;;;;;;5033105;28;20486;-53
2022/05/13 13:08:54;;;;;;;7.20;2.00;;;16.80;99.90;;;;;;5033913;28;20837;-51
2022/05/13 13:11:29;;;;;;;9.10;2.80;;;16.80;99.90;;;;;;5030777;28;20828;-53
2022/05/13 13:14:07;;;;;;;4.60;2.10;;;16.80;99.90;;;;;;5029514;28;20458;-53
2022/05/13 13:16:40;;;;;;;16.17;4.77;;;16.90;99.90;;;;;;5019214;28;20497;-52
2022/05/13 13:19:12;;;;;;;8.50;3.47;;;17.00;99.90;;;;;;5027258;28;20458;-54
2022/05/13 13:21:42;;;;;;;9.73;2.90;;;17.10;99.90;;;;;;5028794;28;20478;-54
2022/05/13 13:24:13;;;;;;;9.50;2.80;;;17.40;99.90;;;;;;5028153;28;20475;-53
2022/05/13 13:26:43;;;;;;;8.67;2.27;;;17.70;99.90;;;;;;5024948;28;20520;-54
2022/05/13 13:29:11;;;;;;;7.37;2.83;;;18.00;99.90;;;;;;5031753;28;20520;-53